Lewes, DE (19958)

1:58 PM EST on February 10, 2016 (GMT -0500)
Red Mill Farms | | Change Station
CLOSE
Current Station
Personal Weather Station
Location: Lewes, DE
Elevation: 30 ft
Nearby Weather Stations

Elev 30 ft 38.75 °N, 75.21 °W | Updated 10 minutes ago

Overcast
Overcast
36.3 °F
Feels Like 29 °F
N
9.4
Wind Variable Wind from WNW

Today
High -- | Low -- °F
--% Chance of Precip.
Yesterday
High -- | Low -- °F
Precip. -- in
Pressure 29.75 in
Visibility 10.0 miles
Clouds Overcast 4000 ft
Windchill 29 °F
Dew Point 23 °F
Humidity 58%
Rainfall 0.02 in
Snow Depth Not available.
6:58 AM 5:32 PM
Waxing Crescent, 6% visible
METAR KGED 101854Z AUTO 27009KT 10SM OVC040 02/M07 A2975 RMK AO2 SLP075 T00221072
Pressure 29.75 in
Visibility 10.0 miles
Clouds Overcast 4000 ft
Windchill 29 °F
Dew Point 23 °F
Humidity 58%
Rainfall 0.02 in
Snow Depth Not available.
6:58 AM 5:32 PM
Waxing Crescent, 6% visible
METAR KGED 101854Z AUTO 27009KT 10SM OVC040 02/M07 A2975 RMK AO2 SLP075 T00221072

10-Day Weather Forecast

Almanac

Astronomy

Feb. 10, 2016 Rise Set
Actual Time
Civil Twilight
Nautical Twilight
Astronomical Twilight
Moon
Length of Visible Light
Length of Day
Tomorrow will be .
, % of the Moon is Illuminated

Today's Extremes

State Highs State Lows

Community

WunderPhotos

Upload Photos

1,891,915 photos uploaded!

WunderBlog® & News

Nearby

Air Quality

  Air Quality AQ Index Pollutant
Not available.

Snow Depth

Station Depth Elevation

Earthquake Activity

City Distance Mag. Time & Date
Minimum magnitude displayed is 2.5.

Coastal Water Temperatures

Place Temperature

Stations

Nearby Weather Stations

Station Location Temp. Windchill Dew Point Humidity Wind Precip. Elev Updated Type
                   

Watches & Warnings

There are currently no watches in effect.